Terminal Aerodrome Forecast
Issued by NWS

Home | Current Version | Previous Version | Text Only | Print | Product List | Glossary Off
Versions: 1 2 3 4 5 6 7 8 9 10 11 12 13

000
FTUS43 KBIS 311700
TAFJMS
TAF
KJMS 311722Z 3118/0118 15010KT P6SM SCT100
     FM010400 16010KT P6SM BKN150 WS015/20040KT
     FM011500 27022G32KT P6SM BKN150=

USA.gov is the U.S. government's official web portal to all federal, state and local government web resources and services.